Página principal
METAR-TAF:

METAR-TAF

Aeroportos :

Stinson Municipal Airport

San Antonio, Texas, Estados Unidos

latitude: 29-20-20N, longitude: 098-28-18W, altura: 175 m

Observação actual do tempo

O boletim foi feito há 52 minutos, às 05:53 UTC
Vento 4 kt de norte
Temperatura 6°C
Humidade 70%
Pressão 1029 hPa
Visibilidade: 16.1 km
Céu limpo

METAR: KSSF 100553Z AUTO 35004KT 10SM CLR 06/01 A3039 RMK AO2 SLP292 T00560006 10111 20056 401500028 50010

Hora: 00:45 (06:45 UTC)

Previsão

O boletim foi feito há 1 hora e 13 minutos, às 05:32 UTC
Previsão válida de 10 às 06 UTC a 11 às 06 UTC
Vento 4 kt de nor-noroeste
Visibilidade: 10 km
Céu limpo
A partir de 10 às 2100 UTC
Vento 3 kt com direcção variável
Visibilidade: 10 km
Céu limpo

TAF: KSSF 100532Z 1006/1106 33004KT P6SM SKC FM102100 VRB03KT P6SM SKC

Observações e previsões do tempo de mais de 4000 aeroportos (mensagens METAR e TAF).

As estações disponíveis são os pontos amarelos e vermelhos sobre o mapa.

Mova o rato sobre o mapa para ver o nome da estação.

Depois clique no ponto para visualizar as observações e previsões meteorológicas.

Para alterar o mapa : clique nos botões verdes com uma cruz preta para aumentar o zoom; no botão verde com uma pitada de zoom; ou nas setas verdes para mapas adjacentes.


METAR-TAF: